createdAt,value
2018-08-03T00:02:24.136Z,93.13
2018-08-03T00:06:28.517Z,90.00
2018-08-03T00:10:32.899Z,68.47
2018-08-03T00:14:37.078Z,72.93
2018-08-03T00:18:41.843Z,73.10
2018-08-03T00:22:46.283Z,92.23
2018-08-03T00:26:50.698Z,82.00
2018-08-03T00:30:55.037Z,101.87
2018-08-03T00:34:59.554Z,84.47
2018-08-03T00:39:04.785Z,81.33
2018-08-03T00:43:09.305Z,80.10
2018-08-03T00:47:13.722Z,79.07
2018-08-03T00:51:18.583Z,83.60
2018-08-03T00:55:22.949Z,80.10
2018-08-03T00:59:27.467Z,98.77
2018-08-03T01:03:32.031Z,96.23
2018-08-03T01:07:36.578Z,95.50
2018-08-03T01:11:41.149Z,83.23
2018-08-03T01:15:45.821Z,96.20
2018-08-03T01:19:50.110Z,106.43
2018-08-03T01:23:54.675Z,91.10
2018-08-03T01:27:59.082Z,80.37
2018-08-03T01:32:03.677Z,83.70
2018-08-03T01:36:08.128Z,73.77
2018-08-03T01:40:12.735Z,61.40
2018-08-03T01:44:17.241Z,57.30
2018-08-03T01:48:21.861Z,63.27
2018-08-03T01:52:26.615Z,64.33
2018-08-03T01:56:31.223Z,62.23
2018-08-03T02:00:35.662Z,65.80
2018-08-03T02:04:40.005Z,60.10
2018-08-03T02:08:44.753Z,62.10
2018-08-03T02:12:49.228Z,63.80
2018-08-03T02:16:54.956Z,64.87
2018-08-03T02:20:59.542Z,59.57
2018-08-03T02:25:04.284Z,60.03
2018-08-03T02:29:08.555Z,61.40
2018-08-03T02:33:13.112Z,62.60
2018-08-03T02:37:17.653Z,63.23
2018-08-03T02:41:22.079Z,68.50
2018-08-03T02:45:26.540Z,121.47
2018-08-03T02:49:31.084Z,136.00
2018-08-03T02:53:35.496Z,155.37
2018-08-03T02:57:40.011Z,195.03
2018-08-03T03:01:44.716Z,202.80
2018-08-03T03:05:49.301Z,195.97
2018-08-03T03:09:54.111Z,134.27
2018-08-03T03:13:58.586Z,183.17
2018-08-03T03:18:02.913Z,169.47
2018-08-03T03:22:08.449Z,112.03
2018-08-03T03:26:12.653Z,174.53
2018-08-03T03:30:17.196Z,201.77
2018-08-03T03:34:21.461Z,204.77
2018-08-03T03:38:25.899Z,191.73
2018-08-03T03:42:30.749Z,193.93
2018-08-03T03:46:35.827Z,219.30
2018-08-03T03:50:40.041Z,195.80
2018-08-03T03:54:44.445Z,182.60
2018-08-03T03:58:48.866Z,192.37
2018-08-03T04:02:53.271Z,249.37
2018-08-03T04:06:57.699Z,237.17
2018-08-03T04:11:02.470Z,282.47
2018-08-03T04:15:07.267Z,250.33
2018-08-03T04:19:11.992Z,311.37
2018-08-03T04:23:16.187Z,357.80
2018-08-03T04:27:20.751Z,295.73
2018-08-03T04:31:25.228Z,329.53
2018-08-03T04:35:29.525Z,303.70
2018-08-03T04:39:33.932Z,149.60
2018-08-03T04:43:38.405Z,96.33
2018-08-03T04:47:42.641Z,74.73
2018-08-03T04:51:46.826Z,75.03
2018-08-03T04:55:51.232Z,57.47
2018-08-03T04:59:55.546Z,341.07
2018-08-03T05:04:00.007Z,65.00
2018-08-03T05:08:04.390Z,63.50
2018-08-03T05:12:09.275Z,65.30
2018-08-03T05:16:13.887Z,58.30
2018-08-03T05:20:18.184Z,59.10
2018-08-03T05:24:22.684Z,63.13
2018-08-03T05:28:27.004Z,59.50
2018-08-03T05:32:31.558Z,72.37
2018-08-03T05:36:36.154Z,97.27
2018-08-03T05:40:40.544Z,245.83
2018-08-03T05:44:44.840Z,244.90
2018-08-03T05:48:49.082Z,436.90
2018-08-03T05:52:53.448Z,428.57
2018-08-03T05:56:57.718Z,454.93
2018-08-03T06:01:09.815Z,571.13
2018-08-03T06:05:14.107Z,524.93
2018-08-03T06:09:18.330Z,630.87
2018-08-03T06:13:22.682Z,553.87
2018-08-03T06:17:26.892Z,513.77
2018-08-03T06:21:31.162Z,426.40
2018-08-03T06:25:35.463Z,320.20
2018-08-03T06:29:39.669Z,321.97
2018-08-03T06:33:44.121Z,405.93
2018-08-03T06:37:48.341Z,214.67
2018-08-03T06:41:52.542Z,209.63
2018-08-03T06:45:56.857Z,251.87
2018-08-03T06:50:01.145Z,267.93
2018-08-03T06:54:05.412Z,254.60
2018-08-03T06:58:09.868Z,337.77
2018-08-03T07:02:14.221Z,388.63
2018-08-03T07:06:18.676Z,391.00
2018-08-03T07:10:22.936Z,382.67
2018-08-03T07:14:27.206Z,408.73
2018-08-03T07:18:31.811Z,419.40
2018-08-03T07:22:36.354Z,439.27
2018-08-03T07:26:40.764Z,413.60
2018-08-03T07:30:45.198Z,371.07
2018-08-03T07:34:49.511Z,382.27
2018-08-03T07:38:53.854Z,185.17
2018-08-03T07:42:58.165Z,234.83
2018-08-03T07:47:02.503Z,180.13
2018-08-03T07:51:07.053Z,176.67
2018-08-03T07:55:11.576Z,156.07
2018-08-03T07:59:16.542Z,181.57
2018-08-03T08:03:21.188Z,142.37
2018-08-03T08:07:25.770Z,80.80
2018-08-03T08:11:32.077Z,62.87
2018-08-03T08:15:36.645Z,82.83
2018-08-03T08:19:41.055Z,47.63
2018-08-03T08:23:47.265Z,41.50
2018-08-03T08:27:51.666Z,37.23
2018-08-03T08:31:57.822Z,38.30
2018-08-03T08:36:02.208Z,37.13
2018-08-03T08:40:07.468Z,35.97
2018-08-03T08:44:12.703Z,36.07
2018-08-03T08:48:18.518Z,35.30
2018-08-03T08:52:24.398Z,31.57
2018-08-03T08:56:29.044Z,33.10
2018-08-03T09:00:33.400Z,34.40
2018-08-03T09:04:37.668Z,33.40
2018-08-03T09:08:42.125Z,33.87
2018-08-03T09:12:46.370Z,36.87
2018-08-03T09:16:50.744Z,37.03
2018-08-03T09:20:55.450Z,36.57
2018-08-03T09:24:59.784Z,37.83
2018-08-03T09:29:04.064Z,43.53
2018-08-03T09:33:07.878Z,39.53
2018-08-03T09:37:12.203Z,39.40
2018-08-03T09:41:16.427Z,35.77
2018-08-03T09:45:20.681Z,37.57
2018-08-03T09:49:25.007Z,39.50
2018-08-03T09:53:29.317Z,36.90
2018-08-03T09:57:33.533Z,36.10
2018-08-03T10:01:37.999Z,36.77
2018-08-03T10:05:42.270Z,36.77
2018-08-03T10:09:46.566Z,35.50
2018-08-03T10:13:50.960Z,37.00
2018-08-03T10:17:55.284Z,40.53
2018-08-03T10:21:59.587Z,38.77
2018-08-03T10:26:04.216Z,37.90
2018-08-03T10:30:08.621Z,34.83
2018-08-03T10:34:15.203Z,36.17
2018-08-03T10:38:21.544Z,35.13
2018-08-03T10:42:26.128Z,39.00
2018-08-03T10:46:30.408Z,37.97
2018-08-03T10:50:34.634Z,37.40
2018-08-03T10:54:39.040Z,35.30
2018-08-03T10:58:43.360Z,34.97
2018-08-03T11:02:47.628Z,32.70
2018-08-03T11:06:52.267Z,34.10
2018-08-03T11:10:56.576Z,33.33
2018-08-03T11:15:01.893Z,34.60
2018-08-03T11:19:06.313Z,35.87
2018-08-03T11:23:10.579Z,36.10
2018-08-03T11:27:14.936Z,34.30
2018-08-03T11:31:19.183Z,44.42
2018-08-03T11:35:23.557Z,85.70
2018-08-03T11:39:27.991Z,196.60
2018-08-03T11:43:32.462Z,420.60
2018-08-03T11:47:36.922Z,457.07
2018-08-03T11:51:41.200Z,450.87
2018-08-03T11:55:45.464Z,255.77
2018-08-03T11:59:49.775Z,285.73
2018-08-03T12:03:54.033Z,301.88
2018-08-03T12:07:58.413Z,310.23
2018-08-03T12:12:02.764Z,96.70
2018-08-03T12:16:07.046Z,117.83
2018-08-03T12:20:11.421Z,118.50
2018-08-03T12:24:15.653Z,95.87
2018-08-03T12:28:20.079Z,148.43
2018-08-03T12:32:24.553Z,165.63
2018-08-03T12:36:28.817Z,227.30
2018-08-03T12:40:33.059Z,228.00
2018-08-03T12:44:37.479Z,430.20
2018-08-03T12:48:41.723Z,226.30
2018-08-03T12:52:45.963Z,327.37
2018-08-03T12:56:51.279Z,399.07
2018-08-03T13:00:57.986Z,423.73
2018-08-03T13:05:02.582Z,220.93
2018-08-03T13:09:07.868Z,340.07
2018-08-03T13:13:13.429Z,378.00
2018-08-03T13:17:17.915Z,419.70
2018-08-03T13:21:34.975Z,451.53
2018-08-03T13:25:39.497Z,504.53
2018-08-03T13:29:46.310Z,489.70
2018-08-03T13:33:51.460Z,449.63
2018-08-03T13:37:57.979Z,445.77
2018-08-03T13:42:02.496Z,430.50
2018-08-03T13:46:08.108Z,358.10
2018-08-03T13:50:12.521Z,341.20
2018-08-03T13:54:16.832Z,244.30
2018-08-03T13:58:21.299Z,140.43
2018-08-03T14:02:27.031Z,214.63
2018-08-03T14:06:31.591Z,177.67
2018-08-03T14:10:36.029Z,148.23
2018-08-03T14:14:59.729Z,149.73
2018-08-03T14:25:15.397Z,140.40
2018-08-03T14:29:19.738Z,200.37
2018-08-03T14:33:24.265Z,240.52
2018-08-03T14:37:30.797Z,172.13
2018-08-03T14:41:39.989Z,175.77
2018-08-03T14:45:44.866Z,198.67
2018-08-03T14:49:50.097Z,193.33
2018-08-03T14:53:59.304Z,221.93
2018-08-03T14:58:04.202Z,171.63
2018-08-03T15:02:10.756Z,240.83
2018-08-03T15:06:15.355Z,218.33
2018-08-03T15:10:21.604Z,176.60
2018-08-03T15:14:26.545Z,236.50
2018-08-03T15:18:32.089Z,185.10
2018-08-03T15:22:36.549Z,171.93
2018-08-03T15:26:42.315Z,229.23
2018-08-03T15:30:47.070Z,322.10
2018-08-03T15:34:51.711Z,299.93
2018-08-03T15:38:56.384Z,258.63
2018-08-03T15:43:00.710Z,307.43
2018-08-03T15:47:05.915Z,316.23
2018-08-03T15:51:10.257Z,379.87
2018-08-03T15:55:14.725Z,333.90
2018-08-03T15:59:18.992Z,383.00
2018-08-03T16:03:23.647Z,361.27
2018-08-03T16:07:29.917Z,406.07
2018-08-03T16:11:34.374Z,419.00
2018-08-03T16:15:41.278Z,453.40
2018-08-03T16:19:47.783Z,388.47
2018-08-03T16:23:52.719Z,408.43
2018-08-03T16:27:57.287Z,435.57
2018-08-03T16:32:01.683Z,435.77
2018-08-03T16:36:06.546Z,381.67
2018-08-03T16:40:13.243Z,391.80
2018-08-03T16:44:17.700Z,384.10
2018-08-03T16:48:22.206Z,359.30
2018-08-03T16:52:26.627Z,345.20
2018-08-03T16:56:31.410Z,351.00
2018-08-03T17:00:35.952Z,369.10
2018-08-03T17:04:40.236Z,300.40
2018-08-03T17:08:44.812Z,275.10
2018-08-03T17:12:52.927Z,203.67
2018-08-03T17:16:57.373Z,171.50
2018-08-03T17:21:02.132Z,206.90
2018-08-03T17:25:07.070Z,230.97
2018-08-03T17:29:11.870Z,210.77
2018-08-03T17:33:17.478Z,270.33
2018-08-03T17:37:21.770Z,250.47
2018-08-03T17:41:26.180Z,197.97
2018-08-03T17:45:30.878Z,157.27
2018-08-03T17:49:36.529Z,178.33
2018-08-03T17:53:41.704Z,153.17
2018-08-03T17:57:46.590Z,158.27
2018-08-03T18:01:51.727Z,197.47
2018-08-03T18:05:56.368Z,240.27
2018-08-03T18:10:00.799Z,316.87
2018-08-03T18:14:06.258Z,319.13
2018-08-03T18:18:11.735Z,370.17
2018-08-03T18:22:16.786Z,401.70
2018-08-03T18:26:22.201Z,444.17
2018-08-03T18:30:28.362Z,462.33
2018-08-03T18:34:33.592Z,511.80
2018-08-03T18:38:38.376Z,523.83
2018-08-03T18:42:43.388Z,542.70
2018-08-03T18:46:48.998Z,507.23
2018-08-03T18:50:53.652Z,556.37
2018-08-03T18:55:00.860Z,558.50
2018-08-03T18:59:05.778Z,507.43
2018-08-03T19:03:10.413Z,530.97
2018-08-03T19:07:15.338Z,348.10
2018-08-03T19:11:20.629Z,282.23
2018-08-03T19:15:25.809Z,137.47
2018-08-03T19:19:30.532Z,91.70
2018-08-03T19:23:35.280Z,76.97
2018-08-03T19:27:39.854Z,90.40
2018-08-03T19:31:44.412Z,96.90
2018-08-03T19:35:49.092Z,113.00
2018-08-03T19:39:53.612Z,99.00
2018-08-03T19:43:58.024Z,103.73
2018-08-03T19:48:02.428Z,98.33
2018-08-03T19:52:10.818Z,73.40
2018-08-03T19:56:18.730Z,68.87
2018-08-03T20:00:23.369Z,68.20
2018-08-03T20:04:31.076Z,99.90
2018-08-03T20:08:35.693Z,108.80
2018-08-03T20:12:41.275Z,106.43
2018-08-03T20:16:45.571Z,107.30
2018-08-03T20:20:50.856Z,107.90
2018-08-03T20:24:55.301Z,93.63
2018-08-03T20:28:59.530Z,78.13
2018-08-03T20:33:04.968Z,77.27
2018-08-03T20:37:10.423Z,111.97
2018-08-03T20:41:14.849Z,110.50
2018-08-03T20:45:19.260Z,165.00
2018-08-03T20:49:24.431Z,156.10
2018-08-03T20:53:28.986Z,183.47
2018-08-03T20:57:33.390Z,185.03
2018-08-03T21:01:37.880Z,172.93
2018-08-03T21:05:42.463Z,183.70
2018-08-03T21:09:46.806Z,197.30
2018-08-03T21:13:51.063Z,227.87
2018-08-03T21:17:55.557Z,227.53
2018-08-03T21:21:59.808Z,254.67
2018-08-03T21:26:04.275Z,218.17
2018-08-03T21:30:10.417Z,228.17
2018-08-03T21:34:15.313Z,218.50
2018-08-03T21:38:19.827Z,191.40
2018-08-03T21:42:24.449Z,158.47
2018-08-03T21:46:28.819Z,207.27
2018-08-03T21:50:33.081Z,157.53
2018-08-03T21:54:37.474Z,199.70
2018-08-03T21:58:42.132Z,175.70
2018-08-03T22:02:46.876Z,162.67
2018-08-03T22:06:51.288Z,193.63
2018-08-03T22:10:55.774Z,165.03
2018-08-03T22:15:00.180Z,227.10
2018-08-03T22:19:04.524Z,148.27
2018-08-03T22:23:08.988Z,127.00
2018-08-03T22:27:14.447Z,132.93
2018-08-03T22:31:18.801Z,276.43
2018-08-03T22:35:23.140Z,235.57
2018-08-03T22:39:27.938Z,254.23
2018-08-03T22:43:32.501Z,240.93
2018-08-03T22:47:37.324Z,323.63
2018-08-03T22:51:41.661Z,329.33
2018-08-03T22:55:46.335Z,341.10
2018-08-03T22:59:50.691Z,332.50
2018-08-03T23:03:55.582Z,204.10
2018-08-03T23:08:01.116Z,241.43
2018-08-03T23:12:05.951Z,286.33
2018-08-03T23:16:10.207Z,263.23
2018-08-03T23:20:14.629Z,312.23
2018-08-03T23:24:19.195Z,333.83
2018-08-03T23:28:24.036Z,232.37
2018-08-03T23:32:28.468Z,174.33
2018-08-03T23:36:32.937Z,94.63
2018-08-03T23:40:37.387Z,69.13
2018-08-03T23:44:42.060Z,81.87
2018-08-03T23:48:46.559Z,112.17
2018-08-03T23:52:51.012Z,63.77
2018-08-03T23:56:55.488Z,94.30
